sensor_id;sensor_type;location;lat;lon;timestamp;pressure;altitude;pressure_sealevel;temperature;humidity
11099;BME280;12223;42.650;23.364;2023-03-23T00:01:48;94329.38;;;5.73;100.00
11099;BME280;12223;42.650;23.364;2023-03-23T00:04:16;94330.00;;;5.75;100.00
11099;BME280;12223;42.650;23.364;2023-03-23T00:06:44;94327.41;;;5.88;100.00
11099;BME280;12223;42.650;23.364;2023-03-23T00:09:12;94284.66;;;5.68;100.00
11099;BME280;12223;42.650;23.364;2023-03-23T00:11:42;94333.69;;;5.94;100.00
11099;BME280;12223;42.650;23.364;2023-03-23T00:14:10;94344.75;;;5.89;100.00
11099;BME280;12223;42.650;23.364;2023-03-23T00:16:40;94363.47;;;5.80;100.00
11099;BME280;12223;42.650;23.364;2023-03-23T00:19:10;94371.13;;;5.75;100.00
11099;BME280;12223;42.650;23.364;2023-03-23T00:21:41;94373.91;;;5.66;100.00
11099;BME280;12223;42.650;23.364;2023-03-23T00:24:12;94369.47;;;5.67;100.00
11099;BME280;12223;42.650;23.364;2023-03-23T00:26:42;94367.25;;;5.64;100.00
11099;BME280;12223;42.650;23.364;2023-03-23T00:29:12;94371.28;;;5.66;100.00
11099;BME280;12223;42.650;23.364;2023-03-23T00:31:40;94375.09;;;5.57;100.00
11099;BME280;12223;42.650;23.364;2023-03-23T00:34:06;94378.72;;;5.50;100.00
11099;BME280;12223;42.650;23.364;2023-03-23T00:36:37;94385.97;;;5.48;100.00
11099;BME280;12223;42.650;23.364;2023-03-23T00:39:09;94398.03;;;5.42;100.00
11099;BME280;12223;42.650;23.364;2023-03-23T00:41:37;94410.47;;;5.34;100.00
11099;BME280;12223;42.650;23.364;2023-03-23T00:44:04;94440.06;;;5.28;100.00
11099;BME280;12223;42.650;23.364;2023-03-23T00:46:33;94476.06;;;5.19;100.00
11099;BME280;12223;42.650;23.364;2023-03-23T00:49:10;94500.59;;;5.11;100.00
11099;BME280;12223;42.650;23.364;2023-03-23T00:51:37;94531.75;;;5.06;100.00
11099;BME280;12223;42.650;23.364;2023-03-23T00:54:04;94547.66;;;5.05;100.00
11099;BME280;12223;42.650;23.364;2023-03-23T00:56:33;94561.50;;;4.99;100.00
11099;BME280;12223;42.650;23.364;2023-03-23T00:59:00;94563.91;;;5.00;100.00
11099;BME280;12223;42.650;23.364;2023-03-23T01:01:27;94567.16;;;5.02;100.00
11099;BME280;12223;42.650;23.364;2023-03-23T01:03:53;94571.59;;;5.02;100.00
11099;BME280;12223;42.650;23.364;2023-03-23T01:06:26;94581.59;;;4.92;100.00
11099;BME280;12223;42.650;23.364;2023-03-23T01:08:54;94580.78;;;4.91;100.00
11099;BME280;12223;42.650;23.364;2023-03-23T01:11:22;94586.63;;;4.93;100.00
11099;BME280;12223;42.650;23.364;2023-03-23T01:13:51;94585.06;;;4.99;100.00
11099;BME280;12223;42.650;23.364;2023-03-23T01:16:18;94568.91;;;4.95;100.00
11099;BME280;12223;42.650;23.364;2023-03-23T01:18:44;94574.66;;;5.05;100.00
11099;BME280;12223;42.650;23.364;2023-03-23T01:21:13;94562.97;;;5.08;100.00
11099;BME280;12223;42.650;23.364;2023-03-23T01:23:41;94564.28;;;5.18;100.00
11099;BME280;12223;42.650;23.364;2023-03-23T01:26:11;94571.16;;;5.26;100.00
11099;BME280;12223;42.650;23.364;2023-03-23T01:28:38;94566.13;;;5.24;100.00
11099;BME280;12223;42.650;23.364;2023-03-23T01:31:09;94571.38;;;5.31;100.00
11099;BME280;12223;42.650;23.364;2023-03-23T01:33:38;94559.31;;;5.30;100.00
11099;BME280;12223;42.650;23.364;2023-03-23T01:36:07;94558.28;;;5.31;100.00
11099;BME280;12223;42.650;23.364;2023-03-23T01:38:34;94556.31;;;5.33;100.00
11099;BME280;12223;42.650;23.364;2023-03-23T01:41:01;94534.75;;;5.38;100.00
11099;BME280;12223;42.650;23.364;2023-03-23T01:43:29;94527.31;;;5.35;100.00
11099;BME280;12223;42.650;23.364;2023-03-23T01:45:57;94511.94;;;5.25;100.00
11099;BME280;12223;42.650;23.364;2023-03-23T01:48:27;94497.78;;;5.13;100.00
11099;BME280;12223;42.650;23.364;2023-03-23T01:50:57;94467.97;;;5.14;100.00
11099;BME280;12223;42.650;23.364;2023-03-23T01:53:34;94458.56;;;5.26;100.00
11099;BME280;12223;42.650;23.364;2023-03-23T01:56:03;94440.88;;;5.28;100.00
11099;BME280;12223;42.650;23.364;2023-03-23T01:58:38;94430.59;;;5.26;100.00
11099;BME280;12223;42.650;23.364;2023-03-23T02:01:09;94447.72;;;5.29;100.00
11099;BME280;12223;42.650;23.364;2023-03-23T02:03:41;94439.28;;;5.34;100.00
11099;BME280;12223;42.650;23.364;2023-03-23T02:06:09;94431.66;;;5.39;100.00
11099;BME280;12223;42.650;23.364;2023-03-23T02:08:36;94395.97;;;5.24;100.00
11099;BME280;12223;42.650;23.364;2023-03-23T02:11:12;94423.84;;;5.52;100.00
11099;BME280;12223;42.650;23.364;2023-03-23T02:13:40;94405.50;;;5.52;100.00
11099;BME280;12223;42.650;23.364;2023-03-23T02:16:14;94419.63;;;5.57;100.00
11099;BME280;12223;42.650;23.364;2023-03-23T02:18:58;94415.63;;;5.61;100.00
11099;BME280;12223;42.650;23.364;2023-03-23T02:24:54;94421.06;;;5.66;100.00
11099;BME280;12223;42.650;23.364;2023-03-23T02:27:41;94416.03;;;5.65;100.00
11099;BME280;12223;42.650;23.364;2023-03-23T02:30:37;94421.44;;;5.57;100.00
11099;BME280;12223;42.650;23.364;2023-03-23T02:33:35;94421.78;;;5.41;100.00
11099;BME280;12223;42.650;23.364;2023-03-23T02:36:12;94441.28;;;5.32;100.00
11099;BME280;12223;42.650;23.364;2023-03-23T02:38:45;94428.16;;;5.25;100.00
11099;BME280;12223;42.650;23.364;2023-03-23T02:41:20;94415.06;;;5.18;100.00
11099;BME280;12223;42.650;23.364;2023-03-23T02:43:49;94403.78;;;5.18;100.00
11099;BME280;12223;42.650;23.364;2023-03-23T02:46:19;94414.88;;;5.26;100.00
11099;BME280;12223;42.650;23.364;2023-03-23T02:48:50;94421.09;;;5.19;100.00
11099;BME280;12223;42.650;23.364;2023-03-23T02:51:20;94449.06;;;5.12;100.00
11099;BME280;12223;42.650;23.364;2023-03-23T02:53:50;94437.16;;;5.09;100.00
11099;BME280;12223;42.650;23.364;2023-03-23T02:56:20;94420.88;;;5.14;100.00
11099;BME280;12223;42.650;23.364;2023-03-23T02:58:48;94404.78;;;5.17;100.00
11099;BME280;12223;42.650;23.364;2023-03-23T03:01:48;94405.78;;;5.16;100.00
11099;BME280;12223;42.650;23.364;2023-03-23T03:04:21;94387.81;;;5.06;100.00
11099;BME280;12223;42.650;23.364;2023-03-23T03:09:46;94411.53;;;4.98;100.00
11099;BME280;12223;42.650;23.364;2023-03-23T03:12:21;94406.78;;;4.74;100.00
11099;BME280;12223;42.650;23.364;2023-03-23T03:14:56;94412.78;;;4.74;100.00
11099;BME280;12223;42.650;23.364;2023-03-23T03:17:25;94409.38;;;4.67;100.00
11099;BME280;12223;42.650;23.364;2023-03-23T03:19:57;94402.25;;;4.55;100.00
11099;BME280;12223;42.650;23.364;2023-03-23T03:22:29;94396.53;;;4.44;100.00
11099;BME280;12223;42.650;23.364;2023-03-23T03:24:57;94376.38;;;4.38;100.00
11099;BME280;12223;42.650;23.364;2023-03-23T03:27:27;94348.16;;;4.27;100.00
11099;BME280;12223;42.650;23.364;2023-03-23T03:29:59;94366.19;;;4.50;100.00
11099;BME280;12223;42.650;23.364;2023-03-23T03:32:35;94356.16;;;4.54;100.00
11099;BME280;12223;42.650;23.364;2023-03-23T03:35:07;94350.19;;;4.66;100.00
11099;BME280;12223;42.650;23.364;2023-03-23T03:37:35;94346.25;;;4.49;100.00
11099;BME280;12223;42.650;23.364;2023-03-23T03:40:04;94372.09;;;4.59;100.00
11099;BME280;12223;42.650;23.364;2023-03-23T03:42:36;94391.88;;;4.68;100.00
11099;BME280;12223;42.650;23.364;2023-03-23T03:45:05;94405.22;;;4.79;100.00
11099;BME280;12223;42.650;23.364;2023-03-23T03:47:32;94412.47;;;4.84;100.00
11099;BME280;12223;42.650;23.364;2023-03-23T03:50:00;94444.28;;;4.88;100.00
11099;BME280;12223;42.650;23.364;2023-03-23T03:52:28;94465.81;;;4.90;100.00
11099;BME280;12223;42.650;23.364;2023-03-23T03:54:55;94471.47;;;4.87;100.00
11099;BME280;12223;42.650;23.364;2023-03-23T03:57:22;94494.03;;;4.94;100.00
11099;BME280;12223;42.650;23.364;2023-03-23T03:59:51;94514.91;;;4.88;100.00
11099;BME280;12223;42.650;23.364;2023-03-23T04:02:18;94517.59;;;4.66;100.00
11099;BME280;12223;42.650;23.364;2023-03-23T04:04:46;94500.16;;;4.73;100.00
11099;BME280;12223;42.650;23.364;2023-03-23T04:07:13;94489.72;;;4.80;100.00
11099;BME280;12223;42.650;23.364;2023-03-23T04:09:43;94440.34;;;4.70;100.00
11099;BME280;12223;42.650;23.364;2023-03-23T04:12:11;94454.59;;;4.96;100.00
11099;BME280;12223;42.650;23.364;2023-03-23T04:14:38;94457.84;;;4.98;100.00
11099;BME280;12223;42.650;23.364;2023-03-23T04:17:05;94456.22;;;4.97;100.00
11099;BME280;12223;42.650;23.364;2023-03-23T04:19:34;94456.25;;;5.03;100.00
11099;BME280;12223;42.650;23.364;2023-03-23T04:22:02;94472.00;;;5.10;100.00
11099;BME280;12223;42.650;23.364;2023-03-23T04:24:29;94495.78;;;4.87;100.00
11099;BME280;12223;42.650;23.364;2023-03-23T04:26:59;94501.50;;;4.97;100.00
11099;BME280;12223;42.650;23.364;2023-03-23T04:29:27;94503.72;;;5.00;100.00
11099;BME280;12223;42.650;23.364;2023-03-23T04:31:54;94488.88;;;5.07;100.00
11099;BME280;12223;42.650;23.364;2023-03-23T04:34:21;94503.63;;;5.15;100.00
11099;BME280;12223;42.650;23.364;2023-03-23T04:36:48;94525.47;;;5.29;100.00
11099;BME280;12223;42.650;23.364;2023-03-23T04:39:15;94551.09;;;5.40;100.00
11099;BME280;12223;42.650;23.364;2023-03-23T04:41:42;94558.00;;;5.47;100.00
11099;BME280;12223;42.650;23.364;2023-03-23T04:44:10;94563.28;;;5.54;100.00
11099;BME280;12223;42.650;23.364;2023-03-23T04:46:43;94568.81;;;5.38;100.00
11099;BME280;12223;42.650;23.364;2023-03-23T04:49:15;94580.63;;;5.55;100.00
11099;BME280;12223;42.650;23.364;2023-03-23T04:51:48;94596.38;;;5.61;100.00
11099;BME280;12223;42.650;23.364;2023-03-23T04:54:16;94595.81;;;5.38;100.00
11099;BME280;12223;42.650;23.364;2023-03-23T04:56:57;94627.28;;;5.45;100.00
11099;BME280;12223;42.650;23.364;2023-03-23T04:59:26;94610.28;;;5.34;100.00
11099;BME280;12223;42.650;23.364;2023-03-23T05:01:54;94572.38;;;5.23;100.00
11099;BME280;12223;42.650;23.364;2023-03-23T05:04:21;94542.16;;;5.28;100.00
11099;BME280;12223;42.650;23.364;2023-03-23T05:06:50;94525.34;;;5.43;100.00
11099;BME280;12223;42.650;23.364;2023-03-23T05:09:17;94539.88;;;5.52;100.00
11099;BME280;12223;42.650;23.364;2023-03-23T05:11:45;94543.13;;;5.54;100.00
11099;BME280;12223;42.650;23.364;2023-03-23T05:14:12;94544.78;;;5.62;100.00
11099;BME280;12223;42.650;23.364;2023-03-23T05:16:41;94568.50;;;5.54;100.00
11099;BME280;12223;42.650;23.364;2023-03-23T05:19:12;94560.81;;;5.46;100.00
11099;BME280;12223;42.650;23.364;2023-03-23T05:21:39;94530.78;;;5.42;100.00
11099;BME280;12223;42.650;23.364;2023-03-23T05:24:07;94546.00;;;5.66;100.00
11099;BME280;12223;42.650;23.364;2023-03-23T05:26:34;94547.19;;;5.63;100.00
11099;BME280;12223;42.650;23.364;2023-03-23T05:29:01;94548.66;;;5.73;100.00
11099;BME280;12223;42.650;23.364;2023-03-23T05:31:28;94576.28;;;5.82;100.00
11099;BME280;12223;42.650;23.364;2023-03-23T05:33:56;94569.28;;;5.48;100.00
11099;BME280;12223;42.650;23.364;2023-03-23T05:36:23;94547.78;;;5.59;100.00
11099;BME280;12223;42.650;23.364;2023-03-23T05:39:04;94550.91;;;5.82;100.00
11099;BME280;12223;42.650;23.364;2023-03-23T05:41:31;94566.53;;;5.97;100.00
11099;BME280;12223;42.650;23.364;2023-03-23T05:43:59;94581.06;;;5.99;100.00
11099;BME280;12223;42.650;23.364;2023-03-23T05:46:25;94588.13;;;5.99;100.00
11099;BME280;12223;42.650;23.364;2023-03-23T05:48:53;94597.63;;;6.07;100.00
11099;BME280;12223;42.650;23.364;2023-03-23T05:51:21;94596.47;;;6.22;100.00
11099;BME280;12223;42.650;23.364;2023-03-23T05:53:48;94601.94;;;6.34;100.00
11099;BME280;12223;42.650;23.364;2023-03-23T05:56:15;94614.91;;;6.49;100.00
11099;BME280;12223;42.650;23.364;2023-03-23T05:58:42;94596.56;;;6.55;100.00
11099;BME280;12223;42.650;23.364;2023-03-23T06:01:09;94627.53;;;6.99;100.00
11099;BME280;12223;42.650;23.364;2023-03-23T06:03:38;94640.88;;;7.31;100.00
11099;BME280;12223;42.650;23.364;2023-03-23T06:06:04;94668.13;;;7.89;100.00
11099;BME280;12223;42.650;23.364;2023-03-23T06:08:34;94709.72;;;8.31;100.00
11099;BME280;12223;42.650;23.364;2023-03-23T06:11:02;94733.00;;;9.23;100.00
11099;BME280;12223;42.650;23.364;2023-03-23T06:13:29;94776.25;;;10.53;100.00
11099;BME280;12223;42.650;23.364;2023-03-23T06:15:56;94809.72;;;10.77;100.00
11099;BME280;12223;42.650;23.364;2023-03-23T06:18:25;94814.13;;;10.83;100.00
11099;BME280;12223;42.650;23.364;2023-03-23T06:20:54;94828.44;;;10.76;100.00
11099;BME280;12223;42.650;23.364;2023-03-23T06:23:23;94831.59;;;10.66;100.00
11099;BME280;12223;42.650;23.364;2023-03-23T06:25:54;94836.78;;;10.55;100.00
11099;BME280;12223;42.650;23.364;2023-03-23T06:28:26;94824.75;;;10.59;100.00
11099;BME280;12223;42.650;23.364;2023-03-23T06:30:53;94822.09;;;10.59;100.00
11099;BME280;12223;42.650;23.364;2023-03-23T06:33:20;94822.19;;;10.70;100.00
11099;BME280;12223;42.650;23.364;2023-03-23T06:35:47;94831.72;;;10.53;100.00
11099;BME280;12223;42.650;23.364;2023-03-23T06:38:14;94828.03;;;10.04;100.00
11099;BME280;12223;42.650;23.364;2023-03-23T06:40:41;94820.47;;;10.08;100.00
11099;BME280;12223;42.650;23.364;2023-03-23T06:43:13;94823.53;;;10.61;100.00
11099;BME280;12223;42.650;23.364;2023-03-23T06:45:41;94827.38;;;10.59;100.00
11099;BME280;12223;42.650;23.364;2023-03-23T06:48:07;94829.25;;;10.95;100.00
11099;BME280;12223;42.650;23.364;2023-03-23T06:50:34;94836.72;;;11.34;100.00
11099;BME280;12223;42.650;23.364;2023-03-23T06:53:01;94839.34;;;11.52;100.00
11099;BME280;12223;42.650;23.364;2023-03-23T06:55:28;94846.22;;;11.72;100.00
11099;BME280;12223;42.650;23.364;2023-03-23T06:57:56;94850.00;;;11.82;100.00
11099;BME280;12223;42.650;23.364;2023-03-23T07:00:25;94832.84;;;11.85;100.00
11099;BME280;12223;42.650;23.364;2023-03-23T07:02:52;94843.00;;;11.88;100.00
11099;BME280;12223;42.650;23.364;2023-03-23T07:05:20;94844.34;;;12.20;100.00
11099;BME280;12223;42.650;23.364;2023-03-23T07:07:47;94842.97;;;12.29;100.00
11099;BME280;12223;42.650;23.364;2023-03-23T07:10:14;94840.28;;;12.18;100.00
11099;BME280;12223;42.650;23.364;2023-03-23T07:12:41;94849.06;;;12.18;100.00
11099;BME280;12223;42.650;23.364;2023-03-23T07:15:08;94846.09;;;12.26;100.00
11099;BME280;12223;42.650;23.364;2023-03-23T07:17:38;94850.59;;;12.37;100.00
11099;BME280;12223;42.650;23.364;2023-03-23T07:20:06;94842.88;;;12.47;100.00
11099;BME280;12223;42.650;23.364;2023-03-23T07:22:34;94853.25;;;12.61;100.00
11099;BME280;12223;42.650;23.364;2023-03-23T07:25:01;94851.28;;;12.91;100.00
11099;BME280;12223;42.650;23.364;2023-03-23T07:27:28;94845.44;;;12.89;100.00
11099;BME280;12223;42.650;23.364;2023-03-23T07:29:55;94849.47;;;13.15;100.00
11099;BME280;12223;42.650;23.364;2023-03-23T07:32:23;94843.44;;;12.84;100.00
11099;BME280;12223;42.650;23.364;2023-03-23T07:34:51;94848.19;;;12.71;100.00
11099;BME280;12223;42.650;23.364;2023-03-23T07:37:18;94834.47;;;12.51;100.00
11099;BME280;12223;42.650;23.364;2023-03-23T07:39:45;94853.13;;;12.67;100.00
11099;BME280;12223;42.650;23.364;2023-03-23T07:42:12;94850.38;;;12.62;100.00
11099;BME280;12223;42.650;23.364;2023-03-23T07:44:39;94856.81;;;12.43;100.00
11099;BME280;12223;42.650;23.364;2023-03-23T07:47:05;94851.84;;;12.35;100.00
11099;BME280;12223;42.650;23.364;2023-03-23T07:49:32;94857.59;;;12.20;100.00
11099;BME280;12223;42.650;23.364;2023-03-23T07:52:00;94862.41;;;12.23;100.00
11099;BME280;12223;42.650;23.364;2023-03-23T07:54:28;94852.66;;;12.47;100.00
11099;BME280;12223;42.650;23.364;2023-03-23T07:56:55;94859.47;;;12.55;100.00
11099;BME280;12223;42.650;23.364;2023-03-23T07:59:22;94862.09;;;12.31;100.00
11099;BME280;12223;42.650;23.364;2023-03-23T08:01:49;94868.09;;;11.97;100.00
11099;BME280;12223;42.650;23.364;2023-03-23T08:04:15;94861.03;;;11.91;100.00
11099;BME280;12223;42.650;23.364;2023-03-23T08:06:43;94885.91;;;12.20;100.00
11099;BME280;12223;42.650;23.364;2023-03-23T08:09:11;94864.06;;;12.47;100.00
11099;BME280;12223;42.650;23.364;2023-03-23T08:11:38;94874.19;;;11.97;100.00
11099;BME280;12223;42.650;23.364;2023-03-23T08:14:05;94874.91;;;12.04;100.00
11099;BME280;12223;42.650;23.364;2023-03-23T08:16:32;94870.13;;;12.25;100.00
11099;BME280;12223;42.650;23.364;2023-03-23T08:18:59;94844.88;;;12.11;100.00
11099;BME280;12223;42.650;23.364;2023-03-23T08:21:26;94865.31;;;11.92;100.00
11099;BME280;12223;42.650;23.364;2023-03-23T08:23:54;94849.63;;;12.20;100.00
11099;BME280;12223;42.650;23.364;2023-03-23T08:26:22;94873.19;;;12.86;100.00
11099;BME280;12223;42.650;23.364;2023-03-23T08:28:49;94869.34;;;13.41;100.00
11099;BME280;12223;42.650;23.364;2023-03-23T08:31:16;94865.25;;;13.61;92.80
11099;BME280;12223;42.650;23.364;2023-03-23T08:33:42;94862.03;;;13.71;90.12
11099;BME280;12223;42.650;23.364;2023-03-23T08:36:09;94870.28;;;13.46;89.78
11099;BME280;12223;42.650;23.364;2023-03-23T08:38:36;94866.41;;;13.25;92.45
11099;BME280;12223;42.650;23.364;2023-03-23T08:41:05;94864.84;;;13.53;90.17
11099;BME280;12223;42.650;23.364;2023-03-23T08:43:34;94867.69;;;13.91;80.79
11099;BME280;12223;42.650;23.364;2023-03-23T08:46:01;94861.34;;;13.92;79.19
11099;BME280;12223;42.650;23.364;2023-03-23T08:48:34;94871.50;;;13.95;72.83
11099;BME280;12223;42.650;23.364;2023-03-23T08:51:02;94862.00;;;13.99;70.37
11099;BME280;12223;42.650;23.364;2023-03-23T08:53:29;94863.59;;;13.84;67.46
11099;BME280;12223;42.650;23.364;2023-03-23T08:56:02;94860.03;;;13.78;62.09
11099;BME280;12223;42.650;23.364;2023-03-23T08:58:29;94863.63;;;14.00;61.75
11099;BME280;12223;42.650;23.364;2023-03-23T09:00:58;94864.72;;;14.33;60.08
11099;BME280;12223;42.650;23.364;2023-03-23T09:03:25;94864.84;;;14.55;57.14
11099;BME280;12223;42.650;23.364;2023-03-23T09:05:52;94867.31;;;13.99;58.92
11099;BME280;12223;42.650;23.364;2023-03-23T09:08:19;94852.03;;;14.06;58.76
11099;BME280;12223;42.650;23.364;2023-03-23T09:10:46;94874.69;;;14.26;55.63
11099;BME280;12223;42.650;23.364;2023-03-23T09:13:15;94874.03;;;14.47;53.81
11099;BME280;12223;42.650;23.364;2023-03-23T09:15:41;94864.44;;;14.63;53.79
11099;BME280;12223;42.650;23.364;2023-03-23T09:18:10;94871.75;;;14.10;55.50
11099;BME280;12223;42.650;23.364;2023-03-23T09:20:37;94871.41;;;13.50;57.14
11099;BME280;12223;42.650;23.364;2023-03-23T09:23:03;94869.63;;;13.27;58.39
11099;BME280;12223;42.650;23.364;2023-03-23T09:25:30;94871.69;;;13.25;59.00
11099;BME280;12223;42.650;23.364;2023-03-23T09:27:58;94870.44;;;13.16;61.57
11099;BME280;12223;42.650;23.364;2023-03-23T09:30:27;94849.56;;;12.97;61.67
11099;BME280;12223;42.650;23.364;2023-03-23T09:32:55;94854.53;;;12.93;62.57
11099;BME280;12223;42.650;23.364;2023-03-23T09:35:23;94857.16;;;13.16;62.10
11099;BME280;12223;42.650;23.364;2023-03-23T09:37:51;94856.38;;;13.27;64.22
11099;BME280;12223;42.650;23.364;2023-03-23T09:40:21;94855.31;;;13.40;63.28
11099;BME280;12223;42.650;23.364;2023-03-23T09:43:09;94845.06;;;13.60;61.55
11099;BME280;12223;42.650;23.364;2023-03-23T09:45:48;94856.34;;;13.39;60.82
11099;BME280;12223;42.650;23.364;2023-03-23T09:48:29;94841.97;;;13.63;61.87
11099;BME280;12223;42.650;23.364;2023-03-23T09:51:04;94853.66;;;13.79;60.25
11099;BME280;12223;42.650;23.364;2023-03-23T09:53:38;94849.59;;;13.88;58.60
11099;BME280;12223;42.650;23.364;2023-03-23T09:56:11;94853.66;;;13.51;57.84
11099;BME280;12223;42.650;23.364;2023-03-23T09:58:46;94850.47;;;13.25;58.08
11099;BME280;12223;42.650;23.364;2023-03-23T10:01:19;94840.91;;;13.24;60.07
11099;BME280;12223;42.650;23.364;2023-03-23T10:03:46;94843.13;;;13.56;59.45
11099;BME280;12223;42.650;23.364;2023-03-23T10:06:17;94842.06;;;13.97;60.94
11099;BME280;12223;42.650;23.364;2023-03-23T10:08:46;94812.63;;;14.15;57.64
11099;BME280;12223;42.650;23.364;2023-03-23T10:11:19;94844.97;;;14.57;56.25
11099;BME280;12223;42.650;23.364;2023-03-23T10:14:03;94848.25;;;14.81;55.01
11099;BME280;12223;42.650;23.364;2023-03-23T10:16:37;94836.56;;;14.82;55.06
11099;BME280;12223;42.650;23.364;2023-03-23T10:19:11;94838.69;;;14.63;53.06
11099;BME280;12223;42.650;23.364;2023-03-23T10:21:42;94839.16;;;14.43;53.94
11099;BME280;12223;42.650;23.364;2023-03-23T10:24:15;94836.78;;;14.30;53.67
11099;BME280;12223;42.650;23.364;2023-03-23T10:26:48;94832.34;;;14.47;54.28
11099;BME280;12223;42.650;23.364;2023-03-23T10:29:24;94832.97;;;14.71;53.93
11099;BME280;12223;42.650;23.364;2023-03-23T10:31:55;94840.16;;;14.93;53.09
11099;BME280;12223;42.650;23.364;2023-03-23T10:34:28;94836.13;;;15.07;52.77
11099;BME280;12223;42.650;23.364;2023-03-23T10:37:03;94814.09;;;15.11;52.05
11099;BME280;12223;42.650;23.364;2023-03-23T10:39:41;94822.03;;;15.28;51.37
11099;BME280;12223;42.650;23.364;2023-03-23T10:42:10;94824.66;;;15.06;50.31
11099;BME280;12223;42.650;23.364;2023-03-23T10:44:37;94812.88;;;14.80;51.30
11099;BME280;12223;42.650;23.364;2023-03-23T10:47:05;94829.16;;;14.84;51.31
11099;BME280;12223;42.650;23.364;2023-03-23T10:49:37;94823.59;;;14.85;51.00
11099;BME280;12223;42.650;23.364;2023-03-23T10:52:25;94818.97;;;14.98;51.16
11099;BME280;12223;42.650;23.364;2023-03-23T10:54:57;94822.41;;;15.15;50.97
11099;BME280;12223;42.650;23.364;2023-03-23T10:57:25;94814.63;;;15.30;50.76
11099;BME280;12223;42.650;23.364;2023-03-23T10:59:58;94817.81;;;15.10;52.08
11099;BME280;12223;42.650;23.364;2023-03-23T11:02:27;94821.81;;;14.74;51.33
11099;BME280;12223;42.650;23.364;2023-03-23T11:05:00;94821.53;;;14.54;51.45
11099;BME280;12223;42.650;23.364;2023-03-23T11:07:32;94822.41;;;14.43;51.96
11099;BME280;12223;42.650;23.364;2023-03-23T11:10:07;94819.75;;;14.43;52.85
11099;BME280;12223;42.650;23.364;2023-03-23T11:12:43;94818.63;;;14.56;52.83
11099;BME280;12223;42.650;23.364;2023-03-23T11:15:23;94809.50;;;14.35;51.27
11099;BME280;12223;42.650;23.364;2023-03-23T11:18:02;94803.94;;;14.20;52.14
11099;BME280;12223;42.650;23.364;2023-03-23T11:20:34;94800.69;;;13.56;52.53
11099;BME280;12223;42.650;23.364;2023-03-23T11:23:10;94803.38;;;13.73;53.28
11099;BME280;12223;42.650;23.364;2023-03-23T11:25:58;94796.72;;;13.70;54.68
11099;BME280;12223;42.650;23.364;2023-03-23T11:28:31;94805.38;;;13.65;54.29
11099;BME280;12223;42.650;23.364;2023-03-23T11:31:01;94799.81;;;13.67;53.83
11099;BME280;12223;42.650;23.364;2023-03-23T11:33:29;94793.91;;;13.77;54.02
11099;BME280;12223;42.650;23.364;2023-03-23T11:35:57;94785.81;;;14.00;54.23
11099;BME280;12223;42.650;23.364;2023-03-23T11:38:25;94776.34;;;14.21;52.76
11099;BME280;12223;42.650;23.364;2023-03-23T11:40:54;94775.75;;;14.19;52.88
11099;BME280;12223;42.650;23.364;2023-03-23T11:43:22;94771.97;;;14.31;52.50
11099;BME280;12223;42.650;23.364;2023-03-23T11:45:56;94772.06;;;14.36;52.26
11099;BME280;12223;42.650;23.364;2023-03-23T11:48:30;94761.69;;;14.35;52.12
11099;BME280;12223;42.650;23.364;2023-03-23T11:51:02;94771.91;;;14.60;52.17
11099;BME280;12223;42.650;23.364;2023-03-23T11:53:39;94773.09;;;14.69;52.06
11099;BME280;12223;42.650;23.364;2023-03-23T11:56:15;94743.56;;;14.32;52.65
11099;BME280;12223;42.650;23.364;2023-03-23T11:58:45;94765.47;;;14.22;52.88
11099;BME280;12223;42.650;23.364;2023-03-23T12:01:36;94757.72;;;14.04;52.01
11099;BME280;12223;42.650;23.364;2023-03-23T12:07:14;94755.09;;;14.54;51.90
11099;BME280;12223;42.650;23.364;2023-03-23T12:09:51;94746.94;;;14.61;52.99
11099;BME280;12223;42.650;23.364;2023-03-23T12:12:30;94751.34;;;14.72;52.68
11099;BME280;12223;42.650;23.364;2023-03-23T12:15:10;94749.81;;;14.76;52.05
11099;BME280;12223;42.650;23.364;2023-03-23T12:17:46;94765.56;;;14.44;52.22
11099;BME280;12223;42.650;23.364;2023-03-23T12:20:24;94734.72;;;14.26;52.56
11099;BME280;12223;42.650;23.364;2023-03-23T12:23:01;94748.66;;;14.50;51.57
11099;BME280;12223;42.650;23.364;2023-03-23T12:26:01;94747.88;;;14.71;51.99
11099;BME280;12223;42.650;23.364;2023-03-23T12:28:39;94753.84;;;14.62;51.53
11099;BME280;12223;42.650;23.364;2023-03-23T12:31:18;94747.19;;;14.59;52.47
11099;BME280;12223;42.650;23.364;2023-03-23T12:33:54;94752.00;;;14.62;51.74
11099;BME280;12223;42.650;23.364;2023-03-23T12:36:32;94745.16;;;14.66;51.58
11099;BME280;12223;42.650;23.364;2023-03-23T12:39:33;94749.19;;;14.69;50.63
11099;BME280;12223;42.650;23.364;2023-03-23T12:42:11;94741.94;;;14.64;51.02
11099;BME280;12223;42.650;23.364;2023-03-23T12:44:45;94739.88;;;14.88;51.59
11099;BME280;12223;42.650;23.364;2023-03-23T12:47:21;94741.88;;;14.98;49.13
11099;BME280;12223;42.650;23.364;2023-03-23T12:49:55;94723.50;;;14.96;48.92
11099;BME280;12223;42.650;23.364;2023-03-23T12:52:27;94734.84;;;15.13;49.51
11099;BME280;12223;42.650;23.364;2023-03-23T12:55:00;94722.97;;;15.21;49.71
11099;BME280;12223;42.650;23.364;2023-03-23T12:57:33;94733.25;;;15.34;50.27
11099;BME280;12223;42.650;23.364;2023-03-23T13:00:06;94721.50;;;15.30;49.85
11099;BME280;12223;42.650;23.364;2023-03-23T13:02:42;94735.63;;;15.09;50.33
11099;BME280;12223;42.650;23.364;2023-03-23T13:05:27;94735.34;;;14.88;50.79
11099;BME280;12223;42.650;23.364;2023-03-23T13:07:59;94725.72;;;15.04;50.79
11099;BME280;12223;42.650;23.364;2023-03-23T13:10:30;94723.59;;;15.06;50.34
11099;BME280;12223;42.650;23.364;2023-03-23T13:13:01;94723.84;;;15.26;49.92
11099;BME280;12223;42.650;23.364;2023-03-23T13:15:34;94724.88;;;15.25;49.99